sensor_id;sensor_type;location;lat;lon;timestamp;temperature;humidity
9875;DHT22;4976;46.786;7.632;2023-07-08T04:01:26;19.10;99.90
9875;DHT22;4976;46.786;7.632;2023-07-08T04:03:53;19.10;99.90
9875;DHT22;4976;46.786;7.632;2023-07-08T04:06:20;19.00;99.90
9875;DHT22;4976;46.786;7.632;2023-07-08T04:08:48;19.10;99.90
9875;DHT22;4976;46.786;7.632;2023-07-08T04:11:17;19.00;99.90
9875;DHT22;4976;46.786;7.632;2023-07-08T04:13:44;19.20;99.90
9875;DHT22;4976;46.786;7.632;2023-07-08T04:16:13;19.30;99.90
9875;DHT22;4976;46.786;7.632;2023-07-08T04:18:43;19.50;99.10
9875;DHT22;4976;46.786;7.632;2023-07-08T04:21:09;19.40;99.90
9875;DHT22;4976;46.786;7.632;2023-07-08T04:23:36;19.50;99.90
9875;DHT22;4976;46.786;7.632;2023-07-08T04:26:03;19.60;99.90
9875;DHT22;4976;46.786;7.632;2023-07-08T04:28:30;19.40;99.90
9875;DHT22;4976;46.786;7.632;2023-07-08T04:30:56;19.20;73.40
9875;DHT22;4976;46.786;7.632;2023-07-08T04:33:23;19.40;1.00
9875;DHT22;4976;46.786;7.632;2023-07-08T04:35:51;19.50;1.00
9875;DHT22;4976;46.786;7.632;2023-07-08T04:38:20;19.60;1.00
9875;DHT22;4976;46.786;7.632;2023-07-08T04:40:47;19.70;1.00
9875;DHT22;4976;46.786;7.632;2023-07-08T04:43:14;19.70;1.00
9875;DHT22;4976;46.786;7.632;2023-07-08T04:45:42;20.00;1.00
9875;DHT22;4976;46.786;7.632;2023-07-08T04:48:11;20.30;1.00
9875;DHT22;4976;46.786;7.632;2023-07-08T04:50:39;20.40;1.00
9875;DHT22;4976;46.786;7.632;2023-07-08T04:53:08;20.30;1.00
9875;DHT22;4976;46.786;7.632;2023-07-08T04:55:35;20.10;60.00
9875;DHT22;4976;46.786;7.632;2023-07-08T04:58:02;19.80;99.90
9875;DHT22;4976;46.786;7.632;2023-07-08T05:00:29;19.70;1.00
9875;DHT22;4976;46.786;7.632;2023-07-08T05:02:56;19.70;99.90
9875;DHT22;4976;46.786;7.632;2023-07-08T05:05:22;19.50;99.90
9875;DHT22;4976;46.786;7.632;2023-07-08T05:07:49;19.40;99.90
9875;DHT22;4976;46.786;7.632;2023-07-08T05:10:18;19.20;1.00
9875;DHT22;4976;46.786;7.632;2023-07-08T05:12:44;19.20;99.90
9875;DHT22;4976;46.786;7.632;2023-07-08T05:15:11;18.80;1.00
9875;DHT22;4976;46.786;7.632;2023-07-08T05:17:39;18.60;99.90
9875;DHT22;4976;46.786;7.632;2023-07-08T05:20:06;18.10;1.00
9875;DHT22;4976;46.786;7.632;2023-07-08T05:22:33;17.80;8.40
9875;DHT22;4976;46.786;7.632;2023-07-08T05:25:00;17.70;40.50
9875;DHT22;4976;46.786;7.632;2023-07-08T05:27:29;17.60;95.20
9875;DHT22;4976;46.786;7.632;2023-07-08T05:29:58;17.50;99.90
9875;DHT22;4976;46.786;7.632;2023-07-08T05:32:25;17.40;99.90
9875;DHT22;4976;46.786;7.632;2023-07-08T05:34:52;17.50;99.90
9875;DHT22;4976;46.786;7.632;2023-07-08T05:37:19;17.40;99.90
9875;DHT22;4976;46.786;7.632;2023-07-08T05:39:50;17.40;99.90
9875;DHT22;4976;46.786;7.632;2023-07-08T05:42:17;17.60;99.90
9875;DHT22;4976;46.786;7.632;2023-07-08T05:44:45;17.80;99.90
9875;DHT22;4976;46.786;7.632;2023-07-08T05:47:13;18.00;99.90
9875;DHT22;4976;46.786;7.632;2023-07-08T05:49:40;18.30;99.90
9875;DHT22;4976;46.786;7.632;2023-07-08T05:52:07;18.10;99.90
9875;DHT22;4976;46.786;7.632;2023-07-08T05:54:36;18.10;99.90
9875;DHT22;4976;46.786;7.632;2023-07-08T05:57:03;18.10;99.90
9875;DHT22;4976;46.786;7.632;2023-07-08T05:59:30;18.10;99.90
9875;DHT22;4976;46.786;7.632;2023-07-08T06:01:58;18.10;99.90
9875;DHT22;4976;46.786;7.632;2023-07-08T06:04:25;18.30;99.90
9875;DHT22;4976;46.786;7.632;2023-07-08T06:06:52;18.50;99.90
9875;DHT22;4976;46.786;7.632;2023-07-08T06:09:19;18.70;99.90
9875;DHT22;4976;46.786;7.632;2023-07-08T06:11:46;18.70;99.90
9875;DHT22;4976;46.786;7.632;2023-07-08T06:14:12;18.70;99.90
9875;DHT22;4976;46.786;7.632;2023-07-08T06:16:39;18.60;99.90
9875;DHT22;4976;46.786;7.632;2023-07-08T06:19:08;18.60;99.90
9875;DHT22;4976;46.786;7.632;2023-07-08T06:21:34;18.20;99.90
9875;DHT22;4976;46.786;7.632;2023-07-08T06:24:01;17.80;99.90
9875;DHT22;4976;46.786;7.632;2023-07-08T06:26:28;17.60;99.90
9875;DHT22;4976;46.786;7.632;2023-07-08T06:28:55;17.70;99.90
9875;DHT22;4976;46.786;7.632;2023-07-08T06:31:22;17.80;99.90
9875;DHT22;4976;46.786;7.632;2023-07-08T06:33:49;17.90;99.90
9875;DHT22;4976;46.786;7.632;2023-07-08T06:36:17;18.00;99.90
9875;DHT22;4976;46.786;7.632;2023-07-08T06:38:44;18.30;99.90
9875;DHT22;4976;46.786;7.632;2023-07-08T06:41:11;18.50;99.90
9875;DHT22;4976;46.786;7.632;2023-07-08T06:43:38;18.80;99.90
9875;DHT22;4976;46.786;7.632;2023-07-08T06:46:04;18.80;99.90
9875;DHT22;4976;46.786;7.632;2023-07-08T06:48:32;18.60;99.90
9875;DHT22;4976;46.786;7.632;2023-07-08T06:50:59;18.50;99.90
9875;DHT22;4976;46.786;7.632;2023-07-08T06:53:27;18.60;99.90
9875;DHT22;4976;46.786;7.632;2023-07-08T06:55:54;19.00;99.90
9875;DHT22;4976;46.786;7.632;2023-07-08T06:58:21;19.20;99.90
9875;DHT22;4976;46.786;7.632;2023-07-08T07:00:47;19.00;93.30
9875;DHT22;4976;46.786;7.632;2023-07-08T07:03:14;18.90;96.00
9875;DHT22;4976;46.786;7.632;2023-07-08T07:05:42;18.90;94.70
9875;DHT22;4976;46.786;7.632;2023-07-08T07:08:09;18.70;94.60
9875;DHT22;4976;46.786;7.632;2023-07-08T07:10:37;18.60;99.90
9875;DHT22;4976;46.786;7.632;2023-07-08T07:13:04;18.40;99.90
9875;DHT22;4976;46.786;7.632;2023-07-08T07:15:31;18.60;99.90
9875;DHT22;4976;46.786;7.632;2023-07-08T07:17:58;19.00;55.60
9875;DHT22;4976;46.786;7.632;2023-07-08T07:20:25;19.20;83.50
9875;DHT22;4976;46.786;7.632;2023-07-08T07:22:52;19.10;83.40
9875;DHT22;4976;46.786;7.632;2023-07-08T07:25:19;19.00;99.90
9875;DHT22;4976;46.786;7.632;2023-07-08T07:27:48;18.90;99.90
9875;DHT22;4976;46.786;7.632;2023-07-08T07:30:15;19.10;99.90
9875;DHT22;4976;46.786;7.632;2023-07-08T07:32:42;19.30;97.60
9875;DHT22;4976;46.786;7.632;2023-07-08T07:35:09;19.50;64.00
9875;DHT22;4976;46.786;7.632;2023-07-08T07:37:38;19.60;1.00
9875;DHT22;4976;46.786;7.632;2023-07-08T07:40:06;19.50;10.30
9875;DHT22;4976;46.786;7.632;2023-07-08T07:42:37;19.80;40.80
9875;DHT22;4976;46.786;7.632;2023-07-08T07:45:06;20.30;22.00
9875;DHT22;4976;46.786;7.632;2023-07-08T07:47:33;20.60;17.10
9875;DHT22;4976;46.786;7.632;2023-07-08T07:50:00;20.80;1.00
9875;DHT22;4976;46.786;7.632;2023-07-08T07:52:27;21.00;1.00
9875;DHT22;4976;46.786;7.632;2023-07-08T07:54:54;21.40;1.00
9875;DHT22;4976;46.786;7.632;2023-07-08T07:57:21;22.00;1.00
9875;DHT22;4976;46.786;7.632;2023-07-08T07:59:48;22.50;1.00
9875;DHT22;4976;46.786;7.632;2023-07-08T08:02:17;22.20;1.00
9875;DHT22;4976;46.786;7.632;2023-07-08T08:04:44;22.60;1.00
9875;DHT22;4976;46.786;7.632;2023-07-08T08:07:11;23.00;1.00
9875;DHT22;4976;46.786;7.632;2023-07-08T08:09:38;23.10;99.90
9875;DHT22;4976;46.786;7.632;2023-07-08T08:12:06;23.30;99.90
9875;DHT22;4976;46.786;7.632;2023-07-08T08:14:34;23.30;1.00
9875;DHT22;4976;46.786;7.632;2023-07-08T08:17:01;23.30;99.90
9875;DHT22;4976;46.786;7.632;2023-07-08T08:19:29;23.00;1.00
9875;DHT22;4976;46.786;7.632;2023-07-08T08:21:56;23.00;99.90
9875;DHT22;4976;46.786;7.632;2023-07-08T08:24:23;22.90;99.90
9875;DHT22;4976;46.786;7.632;2023-07-08T08:26:50;23.10;99.90
9875;DHT22;4976;46.786;7.632;2023-07-08T08:29:16;23.10;1.00
9875;DHT22;4976;46.786;7.632;2023-07-08T08:31:43;22.80;99.90
9875;DHT22;4976;46.786;7.632;2023-07-08T08:34:10;22.50;99.90
9875;DHT22;4976;46.786;7.632;2023-07-08T08:36:38;22.30;99.90
9875;DHT22;4976;46.786;7.632;2023-07-08T08:39:05;21.90;99.90
9875;DHT22;4976;46.786;7.632;2023-07-08T08:41:33;21.80;99.90
9875;DHT22;4976;46.786;7.632;2023-07-08T08:44:00;21.70;99.90
9875;DHT22;4976;46.786;7.632;2023-07-08T08:46:29;21.80;99.90
9875;DHT22;4976;46.786;7.632;2023-07-08T08:48:59;21.80;1.00
9875;DHT22;4976;46.786;7.632;2023-07-08T08:51:29;22.10;1.00
9875;DHT22;4976;46.786;7.632;2023-07-08T08:53:58;22.40;46.80
9875;DHT22;4976;46.786;7.632;2023-07-08T08:56:27;22.60;1.00
9875;DHT22;4976;46.786;7.632;2023-07-08T08:58:56;22.70;1.00
9875;DHT22;4976;46.786;7.632;2023-07-08T09:01:24;23.00;99.90
9875;DHT22;4976;46.786;7.632;2023-07-08T09:03:52;22.90;99.90
9875;DHT22;4976;46.786;7.632;2023-07-08T09:06:23;22.70;17.20
9875;DHT22;4976;46.786;7.632;2023-07-08T09:08:50;22.40;99.90
9875;DHT22;4976;46.786;7.632;2023-07-08T09:11:27;22.30;1.00
9875;DHT22;4976;46.786;7.632;2023-07-08T09:13:59;22.40;99.90
9875;DHT22;4976;46.786;7.632;2023-07-08T09:16:29;22.60;1.00
9875;DHT22;4976;46.786;7.632;2023-07-08T09:19:04;23.00;99.90
9875;DHT22;4976;46.786;7.632;2023-07-08T09:21:33;23.10;99.90
9875;DHT22;4976;46.786;7.632;2023-07-08T09:24:03;23.60;1.00
9875;DHT22;4976;46.786;7.632;2023-07-08T09:26:35;24.00;99.90
9875;DHT22;4976;46.786;7.632;2023-07-08T09:29:04;24.20;1.00
9875;DHT22;4976;46.786;7.632;2023-07-08T09:31:36;24.20;1.00
9875;DHT22;4976;46.786;7.632;2023-07-08T09:34:05;24.40;1.00
9875;DHT22;4976;46.786;7.632;2023-07-08T09:36:32;24.60;1.00
9875;DHT22;4976;46.786;7.632;2023-07-08T09:39:00;25.10;1.00
9875;DHT22;4976;46.786;7.632;2023-07-08T09:41:31;25.30;1.00
9875;DHT22;4976;46.786;7.632;2023-07-08T09:44:08;25.30;1.00
9875;DHT22;4976;46.786;7.632;2023-07-08T09:46:39;25.40;1.00
9875;DHT22;4976;46.786;7.632;2023-07-08T09:49:15;25.60;1.00
9875;DHT22;4976;46.786;7.632;2023-07-08T09:51:42;25.60;1.00
9875;DHT22;4976;46.786;7.632;2023-07-08T09:54:10;25.50;1.00
9875;DHT22;4976;46.786;7.632;2023-07-08T09:56:38;25.30;1.00
9875;DHT22;4976;46.786;7.632;2023-07-08T09:59:09;25.70;1.00
9875;DHT22;4976;46.786;7.632;2023-07-08T10:01:36;25.80;1.00
9875;DHT22;4976;46.786;7.632;2023-07-08T10:04:03;25.90;1.00
9875;DHT22;4976;46.786;7.632;2023-07-08T10:06:31;26.20;1.00
9875;DHT22;4976;46.786;7.632;2023-07-08T10:09:00;26.10;1.00
9875;DHT22;4976;46.786;7.632;2023-07-08T10:11:28;26.10;1.00
9875;DHT22;4976;46.786;7.632;2023-07-08T10:13:56;26.00;1.00
9875;DHT22;4976;46.786;7.632;2023-07-08T10:16:26;26.40;1.00
9875;DHT22;4976;46.786;7.632;2023-07-08T10:18:53;26.80;1.00
9875;DHT22;4976;46.786;7.632;2023-07-08T10:21:23;26.90;1.00
9875;DHT22;4976;46.786;7.632;2023-07-08T10:23:56;27.20;1.00
9875;DHT22;4976;46.786;7.632;2023-07-08T10:26:26;27.50;99.90
9875;DHT22;4976;46.786;7.632;2023-07-08T10:28:58;27.20;99.90
9875;DHT22;4976;46.786;7.632;2023-07-08T10:31:30;27.20;99.90
9875;DHT22;4976;46.786;7.632;2023-07-08T10:34:01;26.10;1.00
9875;DHT22;4976;46.786;7.632;2023-07-08T10:36:31;26.00;1.00
9875;DHT22;4976;46.786;7.632;2023-07-08T10:39:18;26.00;1.00
9875;DHT22;4976;46.786;7.632;2023-07-08T10:44:34;26.30;1.00
9875;DHT22;4976;46.786;7.632;2023-07-08T10:47:05;26.50;99.90
9875;DHT22;4976;46.786;7.632;2023-07-08T10:49:47;26.40;99.90
9875;DHT22;4976;46.786;7.632;2023-07-08T10:52:21;26.60;1.00
9875;DHT22;4976;46.786;7.632;2023-07-08T10:54:58;26.60;99.90
9875;DHT22;4976;46.786;7.632;2023-07-08T11:03:05;26.60;1.00
9875;DHT22;4976;46.786;7.632;2023-07-08T11:05:36;27.10;99.90
9875;DHT22;4976;46.786;7.632;2023-07-08T11:08:07;27.20;99.90
9875;DHT22;4976;46.786;7.632;2023-07-08T11:10:38;27.40;99.90
9875;DHT22;4976;46.786;7.632;2023-07-08T11:16:10;27.40;99.90
9875;DHT22;4976;46.786;7.632;2023-07-08T11:18:48;27.40;99.90
9875;DHT22;4976;46.786;7.632;2023-07-08T11:24:04;27.70;99.90
9875;DHT22;4976;46.786;7.632;2023-07-08T11:26:50;27.60;99.90
9875;DHT22;4976;46.786;7.632;2023-07-08T11:31:49;28.10;99.90
9875;DHT22;4976;46.786;7.632;2023-07-08T11:34:19;28.10;99.90
9875;DHT22;4976;46.786;7.632;2023-07-08T11:36:46;28.20;99.90
9875;DHT22;4976;46.786;7.632;2023-07-08T11:39:27;28.10;99.90
9875;DHT22;4976;46.786;7.632;2023-07-08T11:42:03;28.10;99.90
9875;DHT22;4976;46.786;7.632;2023-07-08T11:44:32;28.30;99.90
9875;DHT22;4976;46.786;7.632;2023-07-08T11:46:59;28.50;99.90
9875;DHT22;4976;46.786;7.632;2023-07-08T11:49:27;28.60;99.90
9875;DHT22;4976;46.786;7.632;2023-07-08T11:51:56;28.30;99.90
9875;DHT22;4976;46.786;7.632;2023-07-08T11:54:26;28.40;99.90
9875;DHT22;4976;46.786;7.632;2023-07-08T11:56:57;28.40;99.90
9875;DHT22;4976;46.786;7.632;2023-07-08T11:59:25;28.50;99.90
9875;DHT22;4976;46.786;7.632;2023-07-08T12:01:53;27.90;99.90
9875;DHT22;4976;46.786;7.632;2023-07-08T12:04:24;27.20;99.90
9875;DHT22;4976;46.786;7.632;2023-07-08T12:06:53;27.70;99.90
9875;DHT22;4976;46.786;7.632;2023-07-08T12:09:25;28.30;99.90
9875;DHT22;4976;46.786;7.632;2023-07-08T12:11:57;27.90;99.90
9875;DHT22;4976;46.786;7.632;2023-07-08T12:14:25;28.00;99.90
9875;DHT22;4976;46.786;7.632;2023-07-08T12:16:53;28.10;99.90
9875;DHT22;4976;46.786;7.632;2023-07-08T12:19:21;28.20;99.90
9875;DHT22;4976;46.786;7.632;2023-07-08T12:21:50;28.10;99.90
9875;DHT22;4976;46.786;7.632;2023-07-08T12:24:19;27.60;99.90
9875;DHT22;4976;46.786;7.632;2023-07-08T12:26:51;27.80;99.90
9875;DHT22;4976;46.786;7.632;2023-07-08T12:29:18;28.20;99.90
9875;DHT22;4976;46.786;7.632;2023-07-08T12:31:45;28.70;99.90
9875;DHT22;4976;46.786;7.632;2023-07-08T12:34:13;29.00;99.90
9875;DHT22;4976;46.786;7.632;2023-07-08T12:36:42;28.70;99.90
9875;DHT22;4976;46.786;7.632;2023-07-08T12:39:11;28.90;99.90
9875;DHT22;4976;46.786;7.632;2023-07-08T12:41:42;29.40;99.90
9875;DHT22;4976;46.786;7.632;2023-07-08T12:44:13;29.40;99.90
9875;DHT22;4976;46.786;7.632;2023-07-08T12:46:40;29.50;99.90
9875;DHT22;4976;46.786;7.632;2023-07-08T12:49:07;29.40;99.90
9875;DHT22;4976;46.786;7.632;2023-07-08T12:51:34;29.30;99.90
9875;DHT22;4976;46.786;7.632;2023-07-08T12:54:01;29.30;99.90
9875;DHT22;4976;46.786;7.632;2023-07-08T12:56:28;29.30;99.90
9875;DHT22;4976;46.786;7.632;2023-07-08T12:58:57;29.40;99.90
9875;DHT22;4976;46.786;7.632;2023-07-08T13:01:25;28.90;99.90
9875;DHT22;4976;46.786;7.632;2023-07-08T13:03:53;28.50;99.90
9875;DHT22;4976;46.786;7.632;2023-07-08T13:06:22;28.20;99.90
9875;DHT22;4976;46.786;7.632;2023-07-08T13:08:50;27.90;99.90
9875;DHT22;4976;46.786;7.632;2023-07-08T13:11:18;28.00;99.90
9875;DHT22;4976;46.786;7.632;2023-07-08T13:13:47;28.10;99.90
9875;DHT22;4976;46.786;7.632;2023-07-08T13:16:16;28.30;99.90
9875;DHT22;4976;46.786;7.632;2023-07-08T13:18:43;28.50;99.90
9875;DHT22;4976;46.786;7.632;2023-07-08T13:21:11;29.20;99.90
9875;DHT22;4976;46.786;7.632;2023-07-08T13:23:39;29.00;99.90
9875;DHT22;4976;46.786;7.632;2023-07-08T13:26:12;28.90;99.90
9875;DHT22;4976;46.786;7.632;2023-07-08T13:28:39;28.60;99.90
9875;DHT22;4976;46.786;7.632;2023-07-08T13:31:13;28.60;99.90
9875;DHT22;4976;46.786;7.632;2023-07-08T13:33:45;28.80;99.90
9875;DHT22;4976;46.786;7.632;2023-07-08T13:36:13;28.90;99.90
9875;DHT22;4976;46.786;7.632;2023-07-08T13:38:46;28.80;99.90
9875;DHT22;4976;46.786;7.632;2023-07-08T13:41:17;28.60;99.90
9875;DHT22;4976;46.786;7.632;2023-07-08T13:43:44;28.60;99.90
9875;DHT22;4976;46.786;7.632;2023-07-08T13:46:25;28.90;99.90
9875;DHT22;4976;46.786;7.632;2023-07-08T13:48:55;29.30;99.90
9875;DHT22;4976;46.786;7.632;2023-07-08T13:51:22;29.00;99.90
9875;DHT22;4976;46.786;7.632;2023-07-08T13:53:51;28.80;99.90
9875;DHT22;4976;46.786;7.632;2023-07-08T13:56:20;28.50;99.90
9875;DHT22;4976;46.786;7.632;2023-07-08T13:58:48;28.30;99.90
9875;DHT22;4976;46.786;7.632;2023-07-08T14:01:19;28.80;99.90
9875;DHT22;4976;46.786;7.632;2023-07-08T14:03:46;29.30;99.90
9875;DHT22;4976;46.786;7.632;2023-07-08T14:06:14;29.20;99.90
9875;DHT22;4976;46.786;7.632;2023-07-08T14:08:40;29.50;99.90
9875;DHT22;4976;46.786;7.632;2023-07-08T14:11:07;29.40;99.90
9875;DHT22;4976;46.786;7.632;2023-07-08T14:13:34;29.40;99.90
9875;DHT22;4976;46.786;7.632;2023-07-08T14:16:01;29.90;99.90
9875;DHT22;4976;46.786;7.632;2023-07-08T14:18:28;29.70;99.90
9875;DHT22;4976;46.786;7.632;2023-07-08T14:20:55;29.00;99.90
9875;DHT22;4976;46.786;7.632;2023-07-08T14:23:24;28.90;99.90
9875;DHT22;4976;46.786;7.632;2023-07-08T14:25:51;29.00;99.90
9875;DHT22;4976;46.786;7.632;2023-07-08T14:28:18;29.10;99.90
9875;DHT22;4976;46.786;7.632;2023-07-08T14:30:45;29.20;99.90
9875;DHT22;4976;46.786;7.632;2023-07-08T14:33:13;29.20;99.90
9875;DHT22;4976;46.786;7.632;2023-07-08T14:35:40;29.30;99.90
9875;DHT22;4976;46.786;7.632;2023-07-08T14:38:09;29.00;99.90
9875;DHT22;4976;46.786;7.632;2023-07-08T14:40:38;28.90;99.90
9875;DHT22;4976;46.786;7.632;2023-07-08T14:43:06;28.90;99.90
9875;DHT22;4976;46.786;7.632;2023-07-08T14:45:35;28.90;99.90
9875;DHT22;4976;46.786;7.632;2023-07-08T14:48:04;28.90;99.90
9875;DHT22;4976;46.786;7.632;2023-07-08T14:50:31;29.10;99.90
9875;DHT22;4976;46.786;7.632;2023-07-08T14:52:58;28.70;99.90
9875;DHT22;4976;46.786;7.632;2023-07-08T14:55:24;28.60;99.90
9875;DHT22;4976;46.786;7.632;2023-07-08T14:57:52;28.90;99.90
9875;DHT22;4976;46.786;7.632;2023-07-08T15:00:20;29.00;99.90
9875;DHT22;4976;46.786;7.632;2023-07-08T15:02:47;28.90;99.90
9875;DHT22;4976;46.786;7.632;2023-07-08T15:05:16;29.00;99.90
9875;DHT22;4976;46.786;7.632;2023-07-08T15:07:43;28.80;99.90
9875;DHT22;4976;46.786;7.632;2023-07-08T15:10:10;28.70;99.90
9875;DHT22;4976;46.786;7.632;2023-07-08T15:12:37;28.80;99.90
9875;DHT22;4976;46.786;7.632;2023-07-08T15:15:08;28.70;99.90
9875;DHT22;4976;46.786;7.632;2023-07-08T15:17:40;28.90;99.90
9875;DHT22;4976;46.786;7.632;2023-07-08T15:20:09;29.30;99.90
9875;DHT22;4976;46.786;7.632;2023-07-08T15:22:38;29.40;99.90
9875;DHT22;4976;46.786;7.632;2023-07-08T15:25:05;29.20;99.90
9875;DHT22;4976;46.786;7.632;2023-07-08T15:27:32;29.20;99.90
9875;DHT22;4976;46.786;7.632;2023-07-08T15:29:59;29.30;99.90
9875;DHT22;4976;46.786;7.632;2023-07-08T15:32:27;29.50;99.90
9875;DHT22;4976;46.786;7.632;2023-07-08T15:34:53;29.50;99.90
9875;DHT22;4976;46.786;7.632;2023-07-08T15:37:20;29.30;99.90
9875;DHT22;4976;46.786;7.632;2023-07-08T15:39:47;29.20;99.90
9875;DHT22;4976;46.786;7.632;2023-07-08T15:42:14;29.50;99.90
9875;DHT22;4976;46.786;7.632;2023-07-08T15:44:40;29.30;99.90
9875;DHT22;4976;46.786;7.632;2023-07-08T15:47:08;29.50;99.90
9875;DHT22;4976;46.786;7.632;2023-07-08T15:49:39;29.30;99.90
9875;DHT22;4976;46.786;7.632;2023-07-08T15:52:07;29.30;99.90
9875;DHT22;4976;46.786;7.632;2023-07-08T15:54:36;29.60;99.90
9875;DHT22;4976;46.786;7.632;2023-07-08T15:57:03;29.60;99.90
9875;DHT22;4976;46.786;7.632;2023-07-08T15:59:31;29.60;99.90
9875;DHT22;4976;46.786;7.632;2023-07-08T16:02:00;29.80;99.90
9875;DHT22;4976;46.786;7.632;2023-07-08T16:04:31;29.60;99.90
9875;DHT22;4976;46.786;7.632;2023-07-08T16:06:59;29.40;99.90
9875;DHT22;4976;46.786;7.632;2023-07-08T16:09:26;29.40;99.90
9875;DHT22;4976;46.786;7.632;2023-07-08T16:11:53;29.50;99.90
9875;DHT22;4976;46.786;7.632;2023-07-08T16:14:20;29.70;99.90
9875;DHT22;4976;46.786;7.632;2023-07-08T16:16:47;29.80;99.90
9875;DHT22;4976;46.786;7.632;2023-07-08T16:19:14;29.80;99.90
9875;DHT22;4976;46.786;7.632;2023-07-08T16:21:41;29.90;99.90
9875;DHT22;4976;46.786;7.632;2023-07-08T16:24:09;30.00;99.90
9875;DHT22;4976;46.786;7.632;2023-07-08T16:26:36;29.90;99.90
9875;DHT22;4976;46.786;7.632;2023-07-08T16:29:04;29.80;99.90
9875;DHT22;4976;46.786;7.632;2023-07-08T16:31:31;29.70;99.90
9875;DHT22;4976;46.786;7.632;2023-07-08T16:33:58;29.70;99.90
9875;DHT22;4976;46.786;7.632;2023-07-08T16:36:25;30.10;99.90
9875;DHT22;4976;46.786;7.632;2023-07-08T16:38:53;31.30;99.90
9875;DHT22;4976;46.786;7.632;2023-07-08T16:41:23;33.00;99.90
9875;DHT22;4976;46.786;7.632;2023-07-08T16:43:51;32.70;99.90
9875;DHT22;4976;46.786;7.632;2023-07-08T16:46:20;32.60;99.90
9875;DHT22;4976;46.786;7.632;2023-07-08T16:51:14;37.10;99.90
9875;DHT22;4976;46.786;7.632;2023-07-08T16:53:42;37.90;99.90
9875;DHT22;4976;46.786;7.632;2023-07-08T16:56:09;38.50;99.90
9875;DHT22;4976;46.786;7.632;2023-07-08T16:58:37;39.00;99.90
9875;DHT22;4976;46.786;7.632;2023-07-08T17:01:05;41.50;99.90
9875;DHT22;4976;46.786;7.632;2023-07-08T17:03:31;44.30;99.90
9875;DHT22;4976;46.786;7.632;2023-07-08T17:05:59;44.20;99.90
9875;DHT22;4976;46.786;7.632;2023-07-08T17:08:26;45.50;99.90
9875;DHT22;4976;46.786;7.632;2023-07-08T17:10:53;44.10;99.90
9875;DHT22;4976;46.786;7.632;2023-07-08T17:13:20;42.80;99.90
9875;DHT22;4976;46.786;7.632;2023-07-08T17:15:48;42.10;99.90
9875;DHT22;4976;46.786;7.632;2023-07-08T17:18:17;41.10;99.90
9875;DHT22;4976;46.786;7.632;2023-07-08T17:20:45;40.50;99.90
9875;DHT22;4976;46.786;7.632;2023-07-08T17:23:14;39.40;99.90
9875;DHT22;4976;46.786;7.632;2023-07-08T17:25:41;37.70;99.90
9875;DHT22;4976;46.786;7.632;2023-07-08T17:28:08;37.30;99.90
9875;DHT22;4976;46.786;7.632;2023-07-08T17:30:34;37.60;99.90
9875;DHT22;4976;46.786;7.632;2023-07-08T17:33:03;37.40;99.90
9875;DHT22;4976;46.786;7.632;2023-07-08T17:35:29;36.40;99.90
9875;DHT22;4976;46.786;7.632;2023-07-08T17:37:56;36.30;99.90
9875;DHT22;4976;46.786;7.632;2023-07-08T17:40:23;35.70;99.90
9875;DHT22;4976;46.786;7.632;2023-07-08T17:42:51;36.70;99.90
9875;DHT22;4976;46.786;7.632;2023-07-08T17:45:22;37.50;99.90
9875;DHT22;4976;46.786;7.632;2023-07-08T17:47:50;38.50;99.90
9875;DHT22;4976;46.786;7.632;2023-07-08T17:50:19;39.40;99.90
9875;DHT22;4976;46.786;7.632;2023-07-08T17:52:46;40.30;99.90
9875;DHT22;4976;46.786;7.632;2023-07-08T17:55:13;39.30;99.90
9875;DHT22;4976;46.786;7.632;2023-07-08T17:57:42;38.00;99.90
9875;DHT22;4976;46.786;7.632;2023-07-08T18:00:15;37.10;99.90
9875;DHT22;4976;46.786;7.632;2023-07-08T18:02:42;36.80;99.90
9875;DHT22;4976;46.786;7.632;2023-07-08T18:05:13;37.40;99.90
9875;DHT22;4976;46.786;7.632;2023-07-08T18:07:42;37.10;99.90
9875;DHT22;4976;46.786;7.632;2023-07-08T18:10:10;35.40;99.90
9875;DHT22;4976;46.786;7.632;2023-07-08T18:12:36;33.80;99.90
9875;DHT22;4976;46.786;7.632;2023-07-08T18:15:09;32.20;99.90
9875;DHT22;4976;46.786;7.632;2023-07-08T18:17:40;31.10;99.90
9875;DHT22;4976;46.786;7.632;2023-07-08T18:20:08;30.30;99.90
9875;DHT22;4976;46.786;7.632;2023-07-08T18:22:35;30.00;99.90
9875;DHT22;4976;46.786;7.632;2023-07-08T18:25:10;29.10;99.90
9875;DHT22;4976;46.786;7.632;2023-07-08T18:27:37;28.70;99.90
9875;DHT22;4976;46.786;7.632;2023-07-08T18:30:04;28.40;99.90
9875;DHT22;4976;46.786;7.632;2023-07-08T18:32:31;28.20;99.90
9875;DHT22;4976;46.786;7.632;2023-07-08T18:34:58;27.80;99.90
9875;DHT22;4976;46.786;7.632;2023-07-08T18:37:25;27.50;99.90
9875;DHT22;4976;46.786;7.632;2023-07-08T18:39:51;27.30;1.00
9875;DHT22;4976;46.786;7.632;2023-07-08T18:42:20;27.40;1.00
9875;DHT22;4976;46.786;7.632;2023-07-08T18:44:46;27.30;1.00
9875;DHT22;4976;46.786;7.632;2023-07-08T18:47:13;27.20;1.00
9875;DHT22;4976;46.786;7.632;2023-07-08T18:49:40;27.00;1.00
9875;DHT22;4976;46.786;7.632;2023-07-08T18:52:08;26.80;1.00
9875;DHT22;4976;46.786;7.632;2023-07-08T18:54:35;26.60;1.00
9875;DHT22;4976;46.786;7.632;2023-07-08T18:57:02;26.40;1.00
9875;DHT22;4976;46.786;7.632;2023-07-08T18:59:30;26.20;1.00
9875;DHT22;4976;46.786;7.632;2023-07-08T19:01:57;26.10;1.00
9875;DHT22;4976;46.786;7.632;2023-07-08T19:04:24;26.00;1.00
9875;DHT22;4976;46.786;7.632;2023-07-08T19:06:52;25.90;1.00
9875;DHT22;4976;46.786;7.632;2023-07-08T19:09:19;25.60;1.00
9875;DHT22;4976;46.786;7.632;2023-07-08T19:11:46;25.50;1.00
9875;DHT22;4976;46.786;7.632;2023-07-08T19:14:13;25.80;1.00
9875;DHT22;4976;46.786;7.632;2023-07-08T19:16:42;25.60;1.00
9875;DHT22;4976;46.786;7.632;2023-07-08T19:19:09;25.10;99.90
9875;DHT22;4976;46.786;7.632;2023-07-08T19:21:36;24.90;99.90
9875;DHT22;4976;46.786;7.632;2023-07-08T19:24:05;24.70;99.90
9875;DHT22;4976;46.786;7.632;2023-07-08T19:26:32;24.30;99.90
9875;DHT22;4976;46.786;7.632;2023-07-08T19:28:59;23.90;1.00
9875;DHT22;4976;46.786;7.632;2023-07-08T19:31:26;23.70;99.90
9875;DHT22;4976;46.786;7.632;2023-07-08T19:33:58;23.80;1.00
9875;DHT22;4976;46.786;7.632;2023-07-08T19:36:25;23.90;1.00
9875;DHT22;4976;46.786;7.632;2023-07-08T19:38:54;23.90;1.00
9875;DHT22;4976;46.786;7.632;2023-07-08T19:41:22;24.00;1.00
9875;DHT22;4976;46.786;7.632;2023-07-08T19:43:50;23.90;1.00
9875;DHT22;4976;46.786;7.632;2023-07-08T19:46:20;23.80;1.00
9875;DHT22;4976;46.786;7.632;2023-07-08T19:48:47;23.60;1.00
9875;DHT22;4976;46.786;7.632;2023-07-08T19:51:15;23.40;47.30
9875;DHT22;4976;46.786;7.632;2023-07-08T19:53:42;23.40;37.40
9875;DHT22;4976;46.786;7.632;2023-07-08T19:56:09;23.50;99.90
9875;DHT22;4976;46.786;7.632;2023-07-08T19:58:37;23.60;66.70
9875;DHT22;4976;46.786;7.632;2023-07-08T20:01:04;23.60;1.00
9875;DHT22;4976;46.786;7.632;2023-07-08T20:03:31;23.50;1.00
9875;DHT22;4976;46.786;7.632;2023-07-08T20:05:59;23.10;99.90
9875;DHT22;4976;46.786;7.632;2023-07-08T20:08:27;22.80;1.00
9875;DHT22;4976;46.786;7.632;2023-07-08T20:10:55;22.70;99.90
9875;DHT22;4976;46.786;7.632;2023-07-08T20:13:22;22.40;99.90
9875;DHT22;4976;46.786;7.632;2023-07-08T20:15:49;22.30;99.90
9875;DHT22;4976;46.786;7.632;2023-07-08T20:18:17;22.40;1.00
9875;DHT22;4976;46.786;7.632;2023-07-08T20:20:45;22.40;1.00
9875;DHT22;4976;46.786;7.632;2023-07-08T20:23:13;22.20;1.00
9875;DHT22;4976;46.786;7.632;2023-07-08T20:25:42;22.10;99.90
9875;DHT22;4976;46.786;7.632;2023-07-08T20:28:10;21.90;1.00
9875;DHT22;4976;46.786;7.632;2023-07-08T20:30:37;21.80;1.00